createdAt,value
2022-09-13T00:05:46.566Z,78.79
2022-09-13T00:29:12.803Z,78.98
2022-09-13T00:40:09.006Z,78.82
2022-09-13T00:42:37.680Z,79.90
2022-09-13T00:45:11.644Z,80.61
2022-09-13T00:47:41.719Z,81.11
2022-09-13T00:50:21.651Z,82.29
2022-09-13T01:16:35.495Z,82.31
2022-09-13T01:19:03.456Z,82.71
2022-09-13T01:21:54.145Z,82.67
2022-09-13T01:40:05.849Z,83.70
2022-09-13T03:41:19.031Z,85.58
2022-09-13T04:34:38.168Z,85.64
2022-09-13T04:39:53.893Z,85.42
2022-09-13T04:42:52.659Z,85.44
2022-09-13T04:45:22.658Z,86.02
2022-09-13T04:47:54.901Z,85.75
2022-09-13T04:53:11.482Z,86.24
2022-09-13T05:38:04.851Z,89.05
2022-09-13T05:43:26.321Z,88.01
2022-09-13T09:47:29.562Z,66.99
2022-09-13T09:50:14.501Z,65.61
2022-09-13T09:52:58.154Z,66.34
2022-09-13T09:55:36.206Z,68.14
2022-09-13T09:58:14.183Z,64.07
2022-09-13T10:01:27.576Z,65.88
2022-09-13T10:04:17.941Z,64.18
2022-09-13T10:06:47.433Z,64.55
2022-09-13T10:09:16.815Z,63.21
2022-09-13T10:11:50.519Z,58.51
2022-09-13T10:14:41.776Z,60.81
2022-09-13T10:17:28.267Z,61.22
2022-09-13T10:20:01.649Z,59.98
2022-09-13T10:22:56.191Z,59.86
2022-09-13T10:59:41.267Z,58.64
2022-09-13T11:03:12.537Z,60.38
2022-09-13T11:06:13.686Z,60.81
2022-09-13T11:09:08.625Z,57.62
2022-09-13T11:14:52.885Z,58.89
2022-09-13T11:17:57.956Z,58.70
2022-09-13T11:20:40.438Z,58.38
2022-09-13T11:23:30.746Z,58.82
2022-09-13T11:26:01.840Z,58.89
2022-09-13T11:29:02.803Z,56.50
2022-09-13T11:31:46.388Z,57.97
2022-09-13T11:34:25.757Z,57.18
2022-09-13T11:40:18.813Z,57.73
2022-09-13T11:46:39.931Z,56.97
2022-09-13T11:59:55.079Z,58.32
2022-09-13T12:02:41.727Z,58.25
2022-09-13T12:05:24.012Z,54.79
2022-09-13T12:08:00.987Z,56.32
2022-09-13T12:30:59.984Z,58.06
2022-09-13T14:49:26.966Z,65.61
2022-09-13T14:51:58.591Z,64.18
2022-09-13T14:54:38.408Z,64.32
2022-09-13T14:57:39.953Z,64.18
2022-09-13T15:00:21.933Z,63.73
2022-09-13T15:02:52.005Z,65.20
2022-09-13T15:05:24.173Z,64.97
2022-09-13T15:07:52.760Z,65.04
2022-09-13T15:10:25.845Z,64.40
2022-09-13T15:13:03.603Z,64.69
2022-09-13T15:15:45.244Z,64.81
2022-09-13T15:21:16.626Z,62.61
2022-09-13T15:23:55.660Z,64.55
2022-09-13T15:26:30.717Z,64.73
2022-09-13T15:29:23.713Z,63.16
2022-09-13T15:31:50.752Z,64.25
2022-09-13T15:34:19.004Z,65.24
2022-09-13T15:37:14.633Z,64.71
2022-09-13T15:40:16.801Z,64.66
2022-09-13T15:45:50.132Z,65.39
2022-09-13T15:51:14.611Z,65.55
2022-09-13T16:32:35.204Z,65.91
2022-09-13T17:47:06.885Z,70.77
2022-09-13T17:49:34.708Z,70.80
2022-09-13T17:52:03.464Z,71.00
2022-09-13T17:54:30.514Z,69.82
2022-09-13T17:57:02.919Z,70.89
2022-09-13T17:59:32.142Z,71.42
2022-09-13T18:02:06.101Z,70.57
2022-09-13T18:04:34.519Z,71.45
2022-09-13T18:07:02.589Z,71.24
2022-09-13T18:09:30.508Z,71.58
2022-09-13T18:11:58.499Z,71.11
2022-09-13T18:14:27.820Z,71.82
2022-09-13T18:19:50.576Z,71.53
2022-09-13T18:22:22.541Z,71.65
2022-09-13T18:24:50.699Z,72.15
2022-09-13T18:27:23.938Z,71.50
2022-09-13T18:29:50.594Z,71.19
2022-09-13T18:32:42.556Z,71.27
2022-09-13T18:35:10.973Z,71.74
2022-09-13T18:37:38.593Z,71.63
2022-09-13T18:40:14.013Z,72.03
2022-09-13T18:42:45.035Z,72.17
2022-09-13T18:45:12.693Z,71.91
2022-09-13T18:47:40.567Z,72.12
2022-09-13T18:50:11.663Z,71.54
2022-09-13T18:52:41.006Z,72.45
2022-09-13T18:55:09.254Z,72.00
2022-09-13T18:57:36.605Z,71.49
2022-09-13T19:00:05.691Z,72.21
2022-09-13T19:02:32.996Z,72.22
2022-09-13T19:05:03.385Z,72.39
2022-09-13T19:07:35.569Z,71.01
2022-09-13T19:10:02.825Z,71.47
2022-09-13T19:12:31.040Z,71.64
2022-09-13T19:17:54.675Z,71.08
2022-09-13T19:20:23.064Z,72.20
2022-09-13T19:22:52.671Z,71.37
2022-09-13T19:25:22.853Z,71.56
2022-09-13T19:27:54.758Z,73.09
2022-09-13T19:30:22.912Z,71.84
2022-09-13T19:32:50.914Z,71.96
2022-09-13T19:35:18.955Z,70.91
2022-09-13T19:37:46.969Z,71.59
2022-09-13T19:40:15.268Z,72.04
2022-09-13T19:42:47.907Z,71.52
2022-09-13T19:45:17.027Z,72.15
2022-09-13T19:50:45.065Z,71.87
2022-09-13T19:53:13.930Z,72.30
2022-09-13T19:55:45.573Z,72.73
2022-09-13T19:58:21.177Z,71.90
2022-09-13T20:00:48.787Z,72.52
2022-09-13T20:03:16.813Z,72.75
2022-09-13T20:05:44.799Z,72.66
2022-09-13T20:08:12.677Z,72.71
2022-09-13T20:10:40.528Z,72.66
2022-09-13T20:13:08.701Z,73.19
2022-09-13T20:15:38.738Z,73.38
2022-09-13T20:18:13.124Z,72.88
2022-09-13T20:20:48.722Z,73.34
2022-09-13T20:23:25.551Z,72.61
2022-09-13T20:25:52.579Z,73.04
2022-09-13T20:28:20.726Z,73.51
2022-09-13T20:30:56.360Z,73.59
2022-09-13T20:33:24.769Z,73.95
2022-09-13T20:35:53.322Z,73.93
2022-09-13T20:38:21.085Z,74.38
2022-09-13T20:40:54.514Z,74.47
2022-09-13T20:43:22.733Z,75.23
2022-09-13T20:45:57.212Z,74.50
2022-09-13T20:48:25.269Z,74.47
2022-09-13T20:50:57.651Z,74.56
2022-09-13T20:53:24.632Z,74.91
2022-09-13T20:55:52.919Z,74.97
2022-09-13T21:04:14.625Z,76.12
2022-09-13T21:07:05.246Z,76.07
2022-09-13T21:09:37.586Z,76.17
2022-09-13T21:12:08.056Z,75.84
2022-09-13T21:14:36.811Z,76.41
2022-09-13T21:17:06.718Z,76.35
2022-09-13T21:19:35.360Z,77.06
2022-09-13T21:22:03.369Z,77.00
2022-09-13T21:24:38.279Z,76.83
2022-09-13T21:27:07.061Z,77.37
2022-09-13T21:29:34.625Z,76.44
2022-09-13T21:32:02.944Z,77.13
2022-09-13T21:34:34.886Z,76.86
2022-09-13T21:37:04.378Z,77.26
2022-09-13T21:39:32.626Z,77.52
2022-09-13T21:42:00.597Z,77.88
2022-09-13T21:44:28.855Z,77.36
2022-09-13T21:49:48.534Z,78.23
2022-09-13T21:52:16.743Z,78.30
2022-09-13T21:54:44.599Z,78.51
2022-09-13T21:57:16.600Z,78.33
2022-09-13T21:59:44.703Z,78.06
2022-09-13T22:02:13.278Z,78.73
2022-09-13T22:04:44.552Z,78.70
2022-09-13T22:13:07.227Z,78.77
2022-09-13T22:18:17.178Z,78.25
2022-09-13T22:23:30.913Z,78.64
2022-09-13T22:26:07.971Z,78.90
2022-09-13T22:28:40.913Z,79.18
2022-09-13T22:31:16.987Z,79.15
2022-09-13T22:45:01.101Z,79.29
2022-09-13T22:47:54.654Z,79.63
2022-09-13T22:50:26.979Z,79.66
2022-09-13T22:55:47.364Z,79.77
2022-09-13T23:01:18.736Z,79.84
2022-09-13T23:12:22.975Z,80.59
2022-09-13T23:20:25.276Z,80.73
2022-09-13T23:22:59.252Z,80.71
2022-09-13T23:25:30.919Z,80.78
2022-09-13T23:27:59.114Z,80.86
2022-09-13T23:30:26.783Z,81.03
2022-09-13T23:33:18.615Z,80.78
2022-09-13T23:35:47.945Z,81.84
2022-09-13T23:38:14.796Z,81.42
2022-09-13T23:40:42.848Z,81.27
2022-09-13T23:43:10.754Z,81.53
2022-09-13T23:45:38.796Z,80.83
2022-09-13T23:48:06.658Z,81.08
2022-09-13T23:50:34.686Z,80.94
2022-09-13T23:53:03.350Z,81.24
2022-09-13T23:55:37.392Z,81.50
2022-09-13T23:58:06.391Z,81.29
